Time;durP1;ratioP1;P1;durP2;ratioP2;P2;SDS_P1;SDS_P2;PMS_P1;PMS_P2;Temp;Humidity;BMP_temperature;BMP_pressure;BME280_temperature;BME280_humidity;BME280_pressure;Samples;Min_cycle;Max_cycle;Signal;HPM_P1;HPM_P2
2023/12/17 00:02:03;;;;;;;1.80;1.50;;;22.50;99.90;;;;;;4976130;28;20047;-51
2023/12/17 00:04:29;;;;;;;2.60;1.40;;;22.50;99.90;;;;;;4976217;28;20062;-51
2023/12/17 00:06:55;;;;;;;2.58;1.38;;;22.50;99.90;;;;;;4976539;28;20027;-51
2023/12/17 00:09:21;;;;;;;2.30;1.65;;;22.50;99.90;;;;;;4976377;28;20093;-51
2023/12/17 00:11:47;;;;;;;3.50;1.58;;;22.40;99.90;;;;;;4976334;28;20488;-50
2023/12/17 00:14:13;;;;;;;2.95;1.75;;;22.40;99.90;;;;;;4976340;28;20023;-51
2023/12/17 00:16:39;;;;;;;2.65;1.67;;;22.40;99.90;;;;;;4976368;28;20100;-51
2023/12/17 00:19:05;;;;;;;3.15;1.65;;;22.40;99.90;;;;;;4976378;28;20399;-51
2023/12/17 00:21:33;;;;;;;2.58;1.50;;;22.40;99.90;;;;;;4976157;28;20027;-50
2023/12/17 00:23:58;;;;;;;4.75;1.95;;;22.30;99.90;;;;;;4976196;28;20031;-51
2023/12/17 00:26:24;;;;;;;2.35;1.48;;;22.30;99.90;;;;;;4975990;28;20114;-51
2023/12/17 00:28:50;;;;;;;2.72;1.50;;;22.30;99.90;;;;;;4990922;28;20108;-51
2023/12/17 00:31:16;;;;;;;1.80;1.33;;;22.30;99.90;;;;;;4975943;28;20023;-50
2023/12/17 00:33:42;;;;;;;2.22;1.50;;;22.30;99.90;;;;;;4976104;28;20022;-51
2023/12/17 00:36:08;;;;;;;2.58;1.48;;;22.30;99.90;;;;;;4975974;28;20099;-51
2023/12/17 00:38:34;;;;;;;2.25;1.42;;;22.30;99.90;;;;;;4975847;28;20154;-50
2023/12/17 00:40:59;;;;;;;2.42;1.10;;;22.30;99.90;;;;;;4975769;28;20476;-51
2023/12/17 00:43:25;;;;;;;1.65;1.13;;;22.20;99.90;;;;;;4975667;28;20035;-51
2023/12/17 00:45:51;;;;;;;1.77;1.17;;;22.20;99.90;;;;;;4990733;28;20109;-50
2023/12/17 00:48:17;;;;;;;1.52;1.27;;;22.20;99.90;;;;;;4975807;28;20027;-51
2023/12/17 00:50:42;;;;;;;2.25;1.45;;;22.20;99.90;;;;;;4975893;28;20382;-51
2023/12/17 00:53:08;;;;;;;3.13;1.20;;;22.20;99.90;;;;;;4975400;28;20035;-50
2023/12/17 00:55:34;;;;;;;1.58;1.27;;;22.10;99.90;;;;;;4975438;28;20030;-51
2023/12/17 00:58:00;;;;;;;2.58;1.60;;;22.10;99.90;;;;;;4973817;28;20058;-51
2023/12/17 01:00:26;;;;;;;1.85;1.40;;;22.10;99.90;;;;;;4988890;23;20535;-49
2023/12/17 01:02:51;;;;;;;2.35;1.42;;;22.10;99.90;;;;;;4992769;28;20045;-50
2023/12/17 01:05:17;;;;;;;2.40;1.30;;;22.10;99.90;;;;;;4992703;28;20022;-50
2023/12/17 01:07:43;;;;;;;2.28;1.48;;;22.10;99.90;;;;;;4993424;28;20038;-49
2023/12/17 01:10:09;;;;;;;2.13;1.40;;;22.10;99.90;;;;;;4993366;28;20080;-50
2023/12/17 01:12:35;;;;;;;2.28;1.52;;;22.10;99.90;;;;;;4994509;28;20534;-49
2023/12/17 01:15:00;;;;;;;2.88;1.38;;;22.00;99.90;;;;;;4994523;28;20110;-49
2023/12/17 01:17:26;;;;;;;3.63;1.23;;;22.00;99.90;;;;;;4993340;28;20489;-50
2023/12/17 01:19:52;;;;;;;1.52;1.00;;;22.00;99.90;;;;;;4994446;28;20049;-49
2023/12/17 01:22:18;;;;;;;1.85;1.17;;;22.00;99.90;;;;;;4994545;28;20038;-49
2023/12/17 01:24:43;;;;;;;1.42;1.10;;;22.00;99.90;;;;;;4994808;28;20022;-50
2023/12/17 01:27:09;;;;;;;2.00;1.20;;;22.00;99.90;;;;;;4994313;28;20026;-49
2023/12/17 01:29:35;;;;;;;1.95;1.30;;;21.90;99.90;;;;;;4994149;28;20027;-50
2023/12/17 01:32:01;;;;;;;1.48;1.20;;;21.90;99.90;;;;;;4994298;28;20024;-49
2023/12/17 01:34:26;;;;;;;2.13;1.15;;;21.90;99.90;;;;;;4994244;28;20521;-50
2023/12/17 01:36:52;;;;;;;1.52;0.82;;;21.90;99.90;;;;;;4994188;28;20022;-50
2023/12/17 01:39:18;;;;;;;1.60;1.02;;;21.90;99.90;;;;;;4994226;28;20030;-48
2023/12/17 01:41:46;;;;;;;1.20;1.08;;;21.90;99.90;;;;;;4994100;28;20463;-48
2023/12/17 01:44:13;;;;;;;1.52;1.15;;;21.90;99.90;;;;;;4994018;28;20030;-48
2023/12/17 01:46:40;;;;;;;1.38;0.90;;;21.80;99.90;;;;;;4994012;28;20101;-48
2023/12/17 01:49:06;;;;;;;2.75;1.20;;;21.80;99.90;;;;;;4994064;28;20390;-48
2023/12/17 01:51:33;;;;;;;3.33;1.30;;;21.80;99.90;;;;;;4993882;28;20027;-48
2023/12/17 01:54:02;;;;;;;1.55;1.02;;;21.80;99.90;;;;;;4993781;28;20537;-48
2023/12/17 01:56:29;;;;;;;1.52;1.02;;;21.80;99.90;;;;;;4993622;28;20453;-48
2023/12/17 01:58:55;;;;;;;1.27;0.82;;;21.80;99.90;;;;;;4993828;28;20026;-48
2023/12/17 02:01:22;;;;;;;2.95;1.20;;;21.70;99.90;;;;;;4994081;28;20121;-48
2023/12/17 02:03:49;;;;;;;1.98;1.00;;;21.70;99.90;;;;;;4993905;28;20034;-48
2023/12/17 02:06:15;;;;;;;1.50;0.88;;;21.70;99.90;;;;;;4993685;28;20077;-48
2023/12/17 02:08:41;;;;;;;1.80;0.93;;;21.70;99.90;;;;;;4993505;28;20104;-49
2023/12/17 02:11:06;;;;;;;2.17;1.10;;;21.70;99.90;;;;;;4993439;28;20497;-48
2023/12/17 02:13:32;;;;;;;1.38;1.17;;;21.70;99.90;;;;;;4992305;28;20471;-48
2023/12/17 02:15:58;;;;;;;1.67;0.95;;;21.70;99.90;;;;;;4992288;28;20037;-48
2023/12/17 02:18:24;;;;;;;1.30;1.10;;;21.60;99.90;;;;;;4993468;28;20022;-49
2023/12/17 02:20:50;;;;;;;2.03;0.73;;;21.60;99.90;;;;;;4993186;28;20084;-49
2023/12/17 02:23:16;;;;;;;2.20;1.10;;;21.60;99.90;;;;;;4993158;28;20026;-49
2023/12/17 02:25:43;;;;;;;1.67;0.95;;;21.60;99.90;;;;;;4993410;28;20054;-49
2023/12/17 02:28:09;;;;;;;1.05;0.75;;;21.60;99.90;;;;;;4993259;28;20023;-49
2023/12/17 02:30:34;;;;;;;1.77;1.17;;;21.60;99.90;;;;;;4993431;28;20018;-48
2023/12/17 02:33:00;;;;;;;1.70;0.95;;;21.60;99.90;;;;;;4993476;28;20031;-49
2023/12/17 02:35:26;;;;;;;1.30;0.82;;;21.60;99.90;;;;;;5008310;28;20093;-49
2023/12/17 02:37:52;;;;;;;1.80;1.00;;;21.50;99.90;;;;;;4993032;28;20457;-49
2023/12/17 02:40:17;;;;;;;1.45;0.90;;;21.50;99.90;;;;;;4993072;28;20030;-49
2023/12/17 02:42:44;;;;;;;2.28;0.90;;;21.50;99.90;;;;;;5008095;28;20121;-48
2023/12/17 02:45:11;;;;;;;1.00;0.90;;;21.50;99.90;;;;;;4991784;28;20019;-49
2023/12/17 02:47:37;;;;;;;1.35;0.98;;;21.50;99.90;;;;;;4993260;28;20028;-48
2023/12/17 02:50:03;;;;;;;1.70;0.63;;;21.50;99.90;;;;;;5008262;28;20030;-49
2023/12/17 02:52:28;;;;;;;2.30;1.00;;;21.50;99.90;;;;;;4991701;28;20085;-49
2023/12/17 02:54:54;;;;;;;0.90;0.70;;;21.50;99.90;;;;;;4992967;28;20030;-49
2023/12/17 02:57:24;;;;;;;1.77;1.00;;;21.50;99.90;;;;;;4993056;28;20030;-49
2023/12/17 02:59:55;;;;;;;1.90;0.98;;;21.40;99.90;;;;;;4992945;28;20391;-49
2023/12/17 03:02:21;;;;;;;1.30;1.08;;;21.50;99.90;;;;;;4993215;28;20475;-49
2023/12/17 03:04:47;;;;;;;1.10;0.70;;;21.40;99.90;;;;;;4992847;28;20073;-49
2023/12/17 03:07:13;;;;;;;3.42;1.13;;;21.40;99.90;;;;;;4992772;28;20054;-49
2023/12/17 03:09:39;;;;;;;1.27;0.75;;;21.40;99.90;;;;;;4993000;28;20058;-49
2023/12/17 03:12:05;;;;;;;1.48;0.85;;;21.40;99.90;;;;;;4992854;28;20176;-49
2023/12/17 03:14:31;;;;;;;0.73;0.60;;;21.40;99.90;;;;;;4992882;28;20037;-49
2023/12/17 03:16:57;;;;;;;3.22;0.80;;;21.40;99.90;;;;;;4992749;28;20076;-49
2023/12/17 03:19:23;;;;;;;2.55;0.60;;;21.40;99.90;;;;;;4992837;28;20097;-49
2023/12/17 03:21:49;;;;;;;1.10;0.70;;;21.40;99.90;;;;;;4992617;28;20499;-49
2023/12/17 03:24:15;;;;;;;1.38;0.60;;;21.30;99.90;;;;;;4992668;28;20030;-49
2023/12/17 03:26:41;;;;;;;0.90;0.63;;;21.40;99.90;;;;;;4992815;28;20467;-49
2023/12/17 03:29:07;;;;;;;1.13;0.75;;;21.30;99.90;;;;;;4992851;28;20041;-49
2023/12/17 03:31:33;;;;;;;2.17;0.70;;;21.30;99.90;;;;;;4992525;28;20019;-49
2023/12/17 03:34:00;;;;;;;0.95;0.50;;;21.30;99.90;;;;;;4995141;28;20105;-55
2023/12/17 03:36:26;;;;;;;1.15;0.75;;;21.30;99.90;;;;;;4996394;28;20019;-48
2023/12/17 03:38:52;;;;;;;1.45;0.77;;;21.30;99.90;;;;;;4996328;28;20037;-49
2023/12/17 03:41:26;;;;;;;1.08;0.70;;;21.30;99.90;;;;;;4996339;28;20445;-49
2023/12/17 03:43:54;;;;;;;1.13;0.82;;;21.30;99.90;;;;;;4994961;28;20483;-49
2023/12/17 03:46:21;;;;;;;1.58;0.70;;;21.30;99.90;;;;;;4994957;28;20081;-49
2023/12/17 03:48:47;;;;;;;1.23;0.68;;;21.20;99.90;;;;;;4996112;28;20019;-48
2023/12/17 03:51:13;;;;;;;0.73;0.50;;;21.20;99.90;;;;;;4996049;28;20027;-49
2023/12/17 03:53:39;;;;;;;1.20;0.63;;;21.20;99.90;;;;;;4994923;28;20029;-49
2023/12/17 03:56:14;;;;;;;1.63;0.80;;;21.20;99.90;;;;;;4996118;28;20022;-49
2023/12/17 03:58:40;;;;;;;1.95;0.82;;;21.20;99.90;;;;;;4994932;28;20030;-49
2023/12/17 04:01:07;;;;;;;0.88;0.65;;;21.20;99.90;;;;;;4996363;28;20109;-48
2023/12/17 04:03:33;;;;;;;0.70;0.43;;;21.20;99.90;;;;;;4995743;28;20031;-49
2023/12/17 04:06:00;;;;;;;0.32;0.32;;;21.10;99.90;;;;;;4995937;28;20038;-48
2023/12/17 04:08:26;;;;;;;6.72;1.48;;;21.10;99.90;;;;;;4995970;28;20030;-47
2023/12/17 04:10:52;;;;;;;2.72;0.90;;;21.10;99.90;;;;;;4995769;28;20391;-49
2023/12/17 04:13:18;;;;;;;2.17;0.80;;;21.10;99.90;;;;;;4995685;28;20022;-49
2023/12/17 04:15:44;;;;;;;4.43;1.17;;;21.10;99.90;;;;;;4995719;28;20466;-49
2023/12/17 04:18:10;;;;;;;7.22;1.25;;;21.10;99.90;;;;;;4995819;28;20029;-49
2023/12/17 04:20:36;;;;;;;3.42;0.95;;;21.10;99.90;;;;;;4995542;28;20027;-49
2023/12/17 04:23:01;;;;;;;3.13;1.25;;;21.10;99.90;;;;;;4995626;28;20034;-49
2023/12/17 04:25:27;;;;;;;1.92;0.90;;;21.10;99.90;;;;;;5010666;28;20492;-49
2023/12/17 04:27:53;;;;;;;3.72;1.08;;;21.10;99.90;;;;;;4995540;28;20026;-49
2023/12/17 04:30:19;;;;;;;2.33;0.98;;;21.10;99.90;;;;;;4995403;28;20033;-49
2023/12/17 04:32:45;;;;;;;2.78;0.70;;;21.10;99.90;;;;;;4995348;28;20471;-49
2023/12/17 04:35:10;;;;;;;4.38;1.13;;;21.10;99.90;;;;;;4995444;28;20019;-49
2023/12/17 04:37:36;;;;;;;4.22;0.90;;;21.00;99.90;;;;;;4995351;28;20077;-49
2023/12/17 04:40:03;;;;;;;1.75;0.82;;;21.00;99.90;;;;;;4995324;28;20045;-49
2023/12/17 04:42:29;;;;;;;2.28;1.00;;;21.00;99.90;;;;;;4995283;28;20035;-49
2023/12/17 04:44:55;;;;;;;1.38;0.98;;;21.00;99.90;;;;;;4994861;28;20084;-49
2023/12/17 04:47:21;;;;;;;1.75;0.65;;;21.00;99.90;;;;;;4995097;28;20034;-52
2023/12/17 04:49:47;;;;;;;2.83;1.15;;;21.00;99.90;;;;;;4995143;28;20085;-49
2023/12/17 04:52:12;;;;;;;2.72;1.00;;;21.00;99.90;;;;;;4995249;28;20037;-49
2023/12/17 04:54:38;;;;;;;3.08;1.02;;;21.00;99.90;;;;;;4995048;28;20022;-49
2023/12/17 04:57:05;;;;;;;2.42;0.95;;;21.00;99.90;;;;;;4993768;28;20072;-48
2023/12/17 04:59:31;;;;;;;4.10;1.20;;;21.00;99.90;;;;;;4994872;28;20015;-47
2023/12/17 05:01:56;;;;;;;2.47;0.60;;;21.00;99.90;;;;;;4995084;28;20054;-48
2023/12/17 05:04:22;;;;;;;2.08;0.70;;;20.90;99.90;;;;;;4994859;28;20029;-48
2023/12/17 05:06:48;;;;;;;4.18;0.98;;;20.90;99.90;;;;;;4994781;28;20394;-48
2023/12/17 05:09:14;;;;;;;3.65;1.00;;;20.90;99.90;;;;;;4993618;28;20037;-48
2023/12/17 05:11:39;;;;;;;3.13;0.70;;;20.90;99.90;;;;;;4994765;28;20391;-48
2023/12/17 05:14:05;;;;;;;1.70;1.00;;;20.90;99.90;;;;;;4994680;28;20030;-48
2023/12/17 05:16:31;;;;;;;1.40;0.60;;;20.90;99.90;;;;;;4994605;28;20032;-48
2023/12/17 05:18:57;;;;;;;0.95;0.55;;;20.90;99.90;;;;;;4994504;28;20121;-48
2023/12/17 05:21:23;;;;;;;2.25;0.70;;;20.80;99.90;;;;;;4994519;28;20026;-48
2023/12/17 05:23:48;;;;;;;2.75;0.85;;;20.90;99.90;;;;;;4994376;28;20093;-47
2023/12/17 05:26:14;;;;;;;2.55;0.95;;;20.90;99.90;;;;;;4994630;28;20022;-48
2023/12/17 05:28:41;;;;;;;2.40;1.00;;;20.80;99.90;;;;;;4994214;28;20105;-49
2023/12/17 05:31:07;;;;;;;2.22;0.80;;;20.80;99.90;;;;;;4994228;28;20030;-50
2023/12/17 05:33:33;;;;;;;2.50;0.82;;;20.80;99.90;;;;;;4994247;28;20065;-48
2023/12/17 05:35:59;;;;;;;1.27;0.68;;;20.80;99.90;;;;;;5009206;28;20432;-47
2023/12/17 05:38:28;;;;;;;3.22;0.85;;;20.80;99.90;;;;;;4994182;28;20026;-48
2023/12/17 05:40:54;;;;;;;3.15;0.90;;;20.80;99.90;;;;;;5008839;28;20026;-48
2023/12/17 05:43:20;;;;;;;2.33;0.82;;;20.80;99.90;;;;;;4993949;28;20096;-48
2023/12/17 05:45:46;;;;;;;2.80;0.70;;;20.80;99.90;;;;;;4994315;28;20022;-49
2023/12/17 05:48:14;;;;;;;0.80;0.60;;;20.70;99.90;;;;;;4993945;28;20485;-49
2023/12/17 05:50:40;;;;;;;;;;;20.70;99.90;;;;;;4994409;28;20202;-49
2023/12/17 05:53:06;;;;;;;2.10;0.80;;;20.70;99.90;;;;;;4993941;28;19937;-48
2023/12/17 05:55:32;;;;;;;1.30;0.75;;;20.70;99.90;;;;;;4993307;28;20434;-49
2023/12/17 05:57:57;;;;;;;12.30;1.88;;;20.70;99.90;;;;;;4993868;28;20122;-48
2023/12/17 06:00:23;;;;;;;1.20;0.93;;;20.70;99.90;;;;;;4992847;28;20380;-48
2023/12/17 06:02:49;;;;;;;2.25;0.75;;;20.60;99.90;;;;;;4992990;28;20034;-48
2023/12/17 06:05:15;;;;;;;1.95;0.60;;;20.60;99.90;;;;;;4992317;28;20110;-48
2023/12/17 06:07:41;;;;;;;3.28;1.00;;;20.60;99.90;;;;;;4992079;28;20395;-49
2023/12/17 06:10:07;;;;;;;3.30;1.00;;;20.60;99.90;;;;;;4992472;28;20030;-49
2023/12/17 06:12:33;;;;;;;1.55;0.57;;;20.60;99.90;;;;;;4992256;28;20027;-48
2023/12/17 06:14:59;;;;;;;1.35;0.80;;;20.60;99.90;;;;;;4993478;28;20081;-48
2023/12/17 06:17:24;;;;;;;3.78;0.85;;;20.60;99.90;;;;;;4993490;28;20072;-48
2023/12/17 06:19:51;;;;;;;3.70;1.17;;;20.60;99.90;;;;;;4993559;28;20033;-48
2023/12/17 06:22:17;;;;;;;1.43;0.57;;;20.60;99.90;;;;;;4993587;28;20157;-49
2023/12/17 06:24:43;;;;;;;0.85;0.60;;;20.60;99.90;;;;;;4993286;28;20109;-48
2023/12/17 06:27:16;;;;;;;3.80;0.77;;;20.60;99.90;;;;;;4993304;28;20101;-48
2023/12/17 06:29:42;;;;;;;1.45;0.85;;;20.50;99.90;;;;;;4993259;28;20060;-47
2023/12/17 06:32:08;;;;;;;2.78;0.70;;;20.50;99.90;;;;;;4993215;28;20030;-48
2023/12/17 06:34:34;;;;;;;3.13;0.70;;;20.50;99.90;;;;;;4993152;28;20029;-49
2023/12/17 06:37:03;;;;;;;2.10;0.80;;;20.50;99.90;;;;;;4993314;28;20054;-49
2023/12/17 06:39:29;;;;;;;0.57;0.52;;;20.50;99.90;;;;;;5008149;28;20398;-48
2023/12/17 06:41:55;;;;;;;1.70;0.70;;;20.50;99.90;;;;;;4993138;28;20030;-49
2023/12/17 06:44:21;;;;;;;3.00;0.80;;;20.50;99.90;;;;;;4991987;28;20070;-49
2023/12/17 06:46:49;;;;;;;2.65;0.88;;;20.50;99.90;;;;;;4993483;28;20023;-48
2023/12/17 06:49:14;;;;;;;3.20;0.80;;;20.50;99.90;;;;;;4993131;28;20023;-48
2023/12/17 06:51:40;;;;;;;4.97;1.00;;;20.40;99.90;;;;;;4993016;28;20041;-48
2023/12/17 06:54:07;;;;;;;1.83;1.20;;;20.40;99.90;;;;;;4993091;28;20022;-48
2023/12/17 06:56:33;;;;;;;2.03;0.88;;;20.40;99.90;;;;;;4993057;28;20375;-48
2023/12/17 06:58:59;;;;;;;1.92;0.60;;;20.40;99.90;;;;;;4993011;28;20034;-49
2023/12/17 07:01:25;;;;;;;2.13;0.90;;;20.40;99.90;;;;;;4992817;28;20050;-47
2023/12/17 07:03:50;;;;;;;1.75;0.63;;;20.40;99.90;;;;;;4992977;28;20030;-47
2023/12/17 07:06:16;;;;;;;2.28;0.90;;;20.40;99.90;;;;;;4992853;28;20019;-47
2023/12/17 07:08:42;;;;;;;1.73;0.93;;;20.40;99.90;;;;;;4996687;28;20565;-47
2023/12/17 07:11:09;;;;;;;2.38;1.00;;;20.40;99.90;;;;;;4997153;28;20383;-47
2023/12/17 07:13:34;;;;;;;1.80;1.10;;;20.30;99.90;;;;;;4996994;28;20026;-47
2023/12/17 07:16:00;;;;;;;1.50;0.98;;;20.40;99.90;;;;;;4996698;28;20701;-47
2023/12/17 07:18:26;;;;;;;3.35;0.95;;;20.30;99.90;;;;;;4996970;28;20038;-47
2023/12/17 07:20:52;;;;;;;1.85;0.85;;;20.40;99.90;;;;;;4997011;28;20383;-47
2023/12/17 07:23:18;;;;;;;3.13;0.95;;;20.30;99.90;;;;;;4996591;28;20034;-47
2023/12/17 07:25:44;;;;;;;8.27;1.30;;;20.30;99.90;;;;;;4996604;28;20042;-49
2023/12/17 07:28:10;;;;;;;1.98;0.95;;;20.30;99.90;;;;;;4995254;28;20386;-48
2023/12/17 07:30:36;;;;;;;2.58;0.90;;;20.30;99.90;;;;;;4996651;28;20045;-47
2023/12/17 07:33:01;;;;;;;3.38;0.90;;;20.30;99.90;;;;;;4996626;28;20026;-48
2023/12/17 07:35:27;;;;;;;1.88;0.82;;;20.30;99.90;;;;;;4996552;28;20180;-48
2023/12/17 07:37:53;;;;;;;2.95;1.00;;;20.30;99.90;;;;;;4996637;28;20360;-48
2023/12/17 07:40:19;;;;;;;2.10;0.93;;;20.30;99.90;;;;;;4996291;28;20108;-47
2023/12/17 07:42:44;;;;;;;2.10;1.13;;;20.30;99.90;;;;;;4996166;28;20506;-48
2023/12/17 07:45:10;;;;;;;2.13;1.55;;;20.30;99.90;;;;;;4996298;28;20050;-47
2023/12/17 07:47:36;;;;;;;3.30;0.93;;;20.30;99.90;;;;;;4996228;28;20034;-48
2023/12/17 07:50:02;;;;;;;2.60;1.35;;;20.30;99.90;;;;;;4996098;28;20023;-48
2023/12/17 07:52:28;;;;;;;4.22;1.30;;;20.20;99.90;;;;;;4994664;28;20418;-47
2023/12/17 07:54:53;;;;;;;1.38;0.90;;;20.30;99.90;;;;;;4996269;28;20130;-48
2023/12/17 07:57:19;;;;;;;2.40;1.08;;;20.30;99.90;;;;;;4996066;28;20022;-47
2023/12/17 07:59:47;;;;;;;3.05;1.15;;;20.30;99.90;;;;;;4995919;28;20030;-48
2023/12/17 08:02:14;;;;;;;1.90;1.08;;;20.30;99.90;;;;;;4994589;28;20382;-48
2023/12/17 08:04:41;;;;;;;2.65;0.93;;;20.30;99.90;;;;;;4995828;28;20065;-48
2023/12/17 08:07:09;;;;;;;1.60;0.90;;;20.40;99.90;;;;;;4994586;28;20022;-46
2023/12/17 08:09:35;;;;;;;1.75;1.30;;;20.40;99.90;;;;;;4996005;28;20093;-47
2023/12/17 08:12:02;;;;;;;1.80;1.10;;;20.40;99.90;;;;;;4995784;28;20034;-47
2023/12/17 08:14:29;;;;;;;1.50;1.02;;;20.50;99.90;;;;;;4995805;28;20023;-47
2023/12/17 08:16:54;;;;;;;2.13;1.15;;;20.50;99.90;;;;;;4994341;28;20027;-47
2023/12/17 08:19:20;;;;;;;1.65;1.00;;;20.50;99.90;;;;;;4993595;28;20505;-47
2023/12/17 08:21:47;;;;;;;2.50;0.93;;;20.60;99.90;;;;;;4995488;28;20098;-47
2023/12/17 08:24:13;;;;;;;1.75;1.10;;;20.60;99.90;;;;;;4995521;28;20026;-47
2023/12/17 08:26:38;;;;;;;2.95;1.27;;;20.60;99.90;;;;;;4995451;28;20030;-47
2023/12/17 08:29:04;;;;;;;1.83;1.27;;;20.70;99.90;;;;;;4995517;28;20062;-47
2023/12/17 08:31:30;;;;;;;2.17;1.08;;;20.70;99.90;;;;;;4995375;28;20023;-46
2023/12/17 08:33:56;;;;;;;1.73;1.15;;;20.80;99.90;;;;;;4995652;28;20026;-47
2023/12/17 08:36:27;;;;;;;1.60;1.27;;;20.80;99.90;;;;;;4995229;28;20033;-47
2023/12/17 08:38:52;;;;;;;2.42;1.40;;;20.80;99.90;;;;;;4995423;28;20045;-47
2023/12/17 08:41:18;;;;;;;1.65;1.23;;;20.80;99.90;;;;;;4995156;28;20532;-47
2023/12/17 08:43:45;;;;;;;2.00;1.30;;;20.90;99.90;;;;;;4995033;28;20355;-46
2023/12/17 08:46:11;;;;;;;1.60;1.07;;;20.90;99.90;;;;;;4995114;28;20101;-47
2023/12/17 08:48:37;;;;;;;2.30;1.40;;;21.00;99.90;;;;;;4993685;28;20451;-46
2023/12/17 08:51:04;;;;;;;2.92;1.50;;;21.00;99.90;;;;;;4995029;28;20053;-47
2023/12/17 08:53:30;;;;;;;1.75;1.40;;;21.00;99.90;;;;;;4994840;28;20018;-47
2023/12/17 08:55:56;;;;;;;1.77;1.25;;;21.10;99.90;;;;;;4995038;28;20080;-48
2023/12/17 08:58:22;;;;;;;2.03;1.23;;;21.10;99.90;;;;;;4994818;28;20026;-48
2023/12/17 09:00:47;;;;;;;4.80;1.42;;;21.10;99.90;;;;;;4994756;28;20046;-47
2023/12/17 09:03:13;;;;;;;5.90;1.40;;;21.20;99.90;;;;;;4994632;28;20073;-48
2023/12/17 09:05:39;;;;;;;2.72;1.30;;;21.20;99.90;;;;;;5009694;28;20018;-48
2023/12/17 09:08:05;;;;;;;1.98;1.38;;;21.30;99.90;;;;;;4994673;28;20386;-47
2023/12/17 09:10:31;;;;;;;2.90;1.38;;;21.30;99.90;;;;;;4994605;28;20025;-48
2023/12/17 09:12:57;;;;;;;2.28;1.50;;;21.30;99.90;;;;;;4994721;28;20098;-48
2023/12/17 09:15:24;;;;;;;1.63;1.30;;;21.30;99.90;;;;;;4994431;28;20030;-47
2023/12/17 09:17:50;;;;;;;4.68;1.45;;;21.40;99.90;;;;;;4993185;28;20398;-47
2023/12/17 09:20:16;;;;;;;4.88;1.38;;;21.40;99.90;;;;;;4994376;28;20027;-48
2023/12/17 09:22:42;;;;;;;2.28;1.35;;;21.50;99.90;;;;;;5009317;28;20039;-48
2023/12/17 09:25:09;;;;;;;2.28;1.40;;;21.50;99.90;;;;;;4994483;28;20102;-48
2023/12/17 09:27:35;;;;;;;3.45;1.67;;;21.50;99.90;;;;;;4994340;28;20085;-48
2023/12/17 09:30:01;;;;;;;2.30;1.67;;;21.60;99.90;;;;;;4993613;28;20033;-48
2023/12/17 09:32:27;;;;;;;2.88;1.55;;;21.60;99.90;;;;;;4994073;28;20414;-47
2023/12/17 09:34:53;;;;;;;2.55;1.63;;;21.70;99.90;;;;;;4994165;28;20026;-48
2023/12/17 09:37:20;;;;;;;3.28;1.90;;;21.70;99.90;;;;;;4994205;28;20080;-47
2023/12/17 09:39:45;;;;;;;3.80;1.90;;;21.70;99.90;;;;;;4994049;28;20038;-48
2023/12/17 09:42:11;;;;;;;3.20;1.92;;;21.80;99.90;;;;;;4993902;28;20288;-48
2023/12/17 09:44:39;;;;;;;3.65;1.70;;;21.80;99.90;;;;;;4994286;28;20347;-48
2023/12/17 09:47:05;;;;;;;6.70;2.00;;;21.80;99.90;;;;;;4993760;28;20043;-48
2023/12/17 09:49:31;;;;;;;4.00;2.13;;;21.90;99.90;;;;;;4993989;28;20057;-48
2023/12/17 09:52:05;;;;;;;4.55;2.22;;;21.90;99.90;;;;;;4993920;28;20030;-49
2023/12/17 09:54:30;;;;;;;3.78;2.05;;;22.00;99.90;;;;;;4993923;28;20030;-47
2023/12/17 09:56:58;;;;;;;2.92;1.90;;;22.00;99.90;;;;;;4993729;28;20023;-48
2023/12/17 09:59:24;;;;;;;3.25;2.92;;;22.00;99.90;;;;;;4993737;28;20403;-48
2023/12/17 10:01:51;;;;;;;4.50;1.63;;;22.10;99.90;;;;;;4993354;28;20038;-48
2023/12/17 10:04:24;;;;;;;;;;;22.10;99.90;;;;;;4994086;28;20035;-48
2023/12/17 10:06:50;;;;;;;4.63;2.17;;;22.10;99.90;;;;;;4992099;28;19906;-47
2023/12/17 10:09:16;;;;;;;2.92;1.70;;;22.20;99.90;;;;;;4992346;28;20093;-47
2023/12/17 10:11:42;;;;;;;3.53;1.70;;;22.20;99.90;;;;;;4993346;28;20029;-48
2023/12/17 10:14:21;;;;;;;6.20;1.80;;;22.30;99.90;;;;;;4993224;28;20042;-47
2023/12/17 10:16:50;;;;;;;3.30;1.70;;;22.30;99.90;;;;;;4993190;28;20026;-48
2023/12/17 10:19:16;;;;;;;2.97;1.80;;;22.40;99.90;;;;;;4993355;28;20374;-48
2023/12/17 10:21:41;;;;;;;4.05;1.40;;;22.40;99.90;;;;;;5008116;28;20026;-48
2023/12/17 10:24:07;;;;;;;5.75;1.90;;;22.50;99.90;;;;;;4993182;28;20038;-48
2023/12/17 10:26:43;;;;;;;4.72;1.90;;;22.50;99.90;;;;;;4993165;28;20022;-47
2023/12/17 10:29:16;;;;;;;4.53;1.80;;;22.60;99.90;;;;;;4993272;28;20022;-48
2023/12/17 10:31:43;;;;;;;3.80;2.05;;;22.60;99.90;;;;;;4993121;28;20050;-47
2023/12/17 10:34:22;;;;;;;5.72;2.10;;;22.70;99.90;;;;;;4993353;28;20389;-48
2023/12/17 10:36:52;;;;;;;4.75;1.98;;;22.70;99.90;;;;;;4993056;28;20486;-48
2023/12/17 10:39:19;;;;;;;4.30;2.10;;;22.80;99.90;;;;;;4993051;28;20113;-48
2023/12/17 10:41:48;;;;;;;4.55;2.00;;;22.80;99.90;;;;;;4992621;28;20021;-47
2023/12/17 10:44:15;;;;;;;5.40;1.85;;;22.90;99.90;;;;;;4993070;28;20449;-49
2023/12/17 10:46:45;;;;;;;4.13;2.22;;;22.90;99.90;;;;;;4993186;28;20026;-48
2023/12/17 10:49:12;;;;;;;7.18;2.38;;;23.00;99.90;;;;;;4993076;28;20034;-47
2023/12/17 10:51:40;;;;;;;4.90;2.10;;;23.00;99.90;;;;;;4992819;28;20701;-48
2023/12/17 10:54:07;;;;;;;4.88;2.92;;;23.10;99.90;;;;;;4992868;28;20034;-49
2023/12/17 10:56:41;;;;;;;3.63;2.47;;;23.10;99.90;;;;;;4991832;28;20019;-48
2023/12/17 10:59:30;;;;;;;4.72;2.30;;;23.20;99.90;;;;;;4992925;28;20035;-48
2023/12/17 11:01:58;;;;;;;8.10;2.50;;;23.20;99.90;;;;;;4992538;28;20047;-49
2023/12/17 11:04:25;;;;;;;5.18;2.58;;;23.30;99.90;;;;;;4992717;28;20487;-48
2023/12/17 11:06:52;;;;;;;5.20;2.53;;;23.30;99.90;;;;;;4991536;28;20053;-48
2023/12/17 11:09:18;;;;;;;5.57;2.42;;;23.30;99.90;;;;;;4992778;28;20105;-48
2023/12/17 11:11:47;;;;;;;9.63;3.28;;;23.40;99.90;;;;;;4992900;28;20348;-48
2023/12/17 11:14:14;;;;;;;5.47;3.03;;;23.40;99.90;;;;;;4992793;28;20147;-48
2023/12/17 11:16:40;;;;;;;7.35;3.25;;;23.40;99.90;;;;;;4992595;28;20105;-48
2023/12/17 11:19:06;;;;;;;7.07;3.03;;;23.50;99.90;;;;;;4992782;28;20026;-48
2023/12/17 11:21:34;;;;;;;5.85;2.97;;;23.50;99.90;;;;;;4993063;28;20026;-47
2023/12/17 11:24:00;;;;;;;9.55;3.00;;;23.60;99.90;;;;;;4992788;28;20089;-48
2023/12/17 11:26:26;;;;;;;8.85;3.42;;;23.50;99.90;;;;;;4992808;28;20519;-47
2023/12/17 11:28:55;;;;;;;4.53;3.30;;;23.60;99.90;;;;;;4991311;28;20433;-49
2023/12/17 11:31:21;;;;;;;8.52;3.25;;;23.60;99.90;;;;;;4991311;28;20070;-49
2023/12/17 11:33:47;;;;;;;3.33;2.53;;;23.70;99.90;;;;;;4992537;28;20022;-49
2023/12/17 11:36:14;;;;;;;9.00;3.53;;;23.70;99.90;;;;;;4992422;28;20101;-49
2023/12/17 11:38:39;;;;;;;6.68;3.30;;;23.70;99.90;;;;;;4992606;28;20030;-49
2023/12/17 11:41:06;;;;;;;8.57;3.63;;;23.70;99.90;;;;;;4991367;28;20027;-48
2023/12/17 11:43:32;;;;;;;7.85;3.40;;;23.80;99.90;;;;;;4992381;28;20057;-48
2023/12/17 11:45:58;;;;;;;6.47;4.13;;;23.80;99.90;;;;;;4992429;28;20401;-48
2023/12/17 11:48:28;;;;;;;5.88;3.30;;;23.90;99.90;;;;;;4992506;28;20021;-48
2023/12/17 11:50:59;;;;;;;5.40;3.33;;;23.90;99.90;;;;;;4992506;28;20027;-49
2023/12/17 11:53:27;;;;;;;12.60;3.50;;;23.80;99.90;;;;;;4992526;28;20096;-49
2023/12/17 11:55:56;;;;;;;;;;;23.90;99.90;;;;;;4996601;28;20018;-49
2023/12/17 11:58:23;;;;;;;8.35;3.63;;;23.90;99.90;;;;;;4995963;28;19912;-49
2023/12/17 12:01:09;;;;;;;5.90;3.65;;;24.00;99.90;;;;;;4996085;28;20085;-48
2023/12/17 12:03:37;;;;;;;8.20;3.60;;;24.00;99.90;;;;;;4996031;28;20069;-48
2023/12/17 12:06:10;;;;;;;7.68;3.65;;;24.00;99.90;;;;;;4995893;28;20030;-48
2023/12/17 12:08:48;;;;;;;10.00;3.90;;;24.00;99.90;;;;;;4996014;28;20030;-48
2023/12/17 12:11:15;;;;;;;9.05;3.95;;;24.10;99.90;;;;;;5010916;28;20383;-49
2023/12/17 12:13:43;;;;;;;8.75;4.50;;;24.00;99.90;;;;;;4995784;28;20486;-49
2023/12/17 12:16:12;;;;;;;;;;;24.10;99.90;;;;;;4996156;28;20098;-48
2023/12/17 12:18:38;;;;;;;6.88;4.10;;;24.10;99.90;;;;;;4995930;28;19906;-48
2023/12/17 12:21:24;;;;;;;9.82;4.10;;;24.20;99.90;;;;;;4994454;28;20097;-47
2023/12/17 12:23:54;;;;;;;6.20;3.53;;;24.20;99.90;;;;;;4995383;28;20042;-48
2023/12/17 12:26:21;;;;;;;13.27;3.72;;;24.20;99.90;;;;;;4995612;28;20073;-49
2023/12/17 12:28:55;;;;;;;5.53;3.07;;;24.20;99.90;;;;;;4994261;28;20117;-48
2023/12/17 12:31:21;;;;;;;8.63;4.30;;;24.30;99.90;;;;;;4994155;28;20117;-48
2023/12/17 12:34:00;;;;;;;16.33;4.07;;;24.30;99.90;;;;;;4995394;28;20054;-49
2023/12/17 12:36:41;;;;;;;10.73;4.05;;;24.30;99.90;;;;;;4995290;28;20114;-48
2023/12/17 12:39:07;;;;;;;7.85;3.03;;;24.30;99.90;;;;;;4995647;28;20022;-49
2023/12/17 12:41:33;;;;;;;12.30;3.88;;;24.40;99.90;;;;;;4995298;28;20133;-48
2023/12/17 12:44:00;;;;;;;10.30;4.10;;;24.40;99.90;;;;;;5010376;28;20453;-49
2023/12/17 12:46:26;;;;;;;7.95;3.65;;;24.40;99.90;;;;;;4993916;28;20150;-49